Time;durP1;ratioP1;P1;durP2;ratioP2;P2;SDS_P1;SDS_P2;PMS_P1;PMS_P2;Temp;Humidity;BMP_temperature;BMP_pressure;BME280_temperature;BME280_humidity;BME280_pressure;Samples;Min_cycle;Max_cycle;Signal;HPM_P1;HPM_P2
2022/12/05 00:00:27;0.00;0.00;0.62;0.00;0.00;0.62;4.70;3.60;;;21.50;24.00;;;;;;2235716;62;20417;-68
2022/12/05 00:03:12;0.00;0.00;0.62;0.00;0.00;0.62;4.67;4.07;;;21.50;24.00;;;;;;2235800;62;20985;-68
2022/12/05 00:05:56;0.00;0.00;0.62;0.00;0.00;0.62;4.70;4.30;;;21.50;23.90;;;;;;2235635;62;20374;-67
2022/12/05 00:08:43;0.00;0.00;0.62;0.00;0.00;0.62;5.67;4.80;;;21.50;23.90;;;;;;2235857;62;20366;-68
2022/12/05 00:14:43;0.00;0.00;0.62;0.00;0.00;0.62;5.43;4.80;;;21.50;23.90;;;;;;2233899;61;20390;-68
2022/12/05 00:17:27;0.00;0.00;0.62;0.00;0.00;0.62;5.50;4.43;;;21.50;23.90;;;;;;2234878;61;20374;-68
2022/12/05 00:20:22;0.00;0.00;0.62;0.00;0.00;0.62;5.60;4.20;;;21.50;23.90;;;;;;2237455;61;20364;-68
2022/12/05 00:23:27;0.00;0.00;0.62;0.00;0.00;0.62;4.80;4.00;;;21.50;23.90;;;;;;2248272;58;20431;-68
2022/12/05 00:26:31;0.00;0.00;0.62;0.00;0.00;0.62;7.13;5.03;;;21.50;23.90;;;;;;2231588;62;20375;-68
2022/12/05 00:29:16;0.00;0.00;0.62;0.00;0.00;0.62;7.03;5.17;;;21.50;23.80;;;;;;2236227;62;20389;-68
2022/12/05 00:32:01;0.00;0.00;0.62;0.00;0.00;0.62;5.30;4.80;;;21.50;23.80;;;;;;2235564;62;20405;-68
2022/12/05 00:34:46;0.00;0.00;0.62;0.00;0.00;0.62;6.53;5.40;;;21.50;23.80;;;;;;2235187;62;20386;-68
2022/12/05 00:37:30;0.00;0.00;0.62;0.00;0.00;0.62;6.90;5.07;;;21.50;23.80;;;;;;2235185;62;20366;-68
2022/12/05 00:40:15;0.00;0.00;0.62;0.00;0.00;0.62;6.33;5.30;;;21.50;23.80;;;;;;2235998;62;20363;-68
2022/12/05 00:43:01;0.00;0.00;0.62;0.00;0.00;0.62;5.50;4.77;;;21.50;23.80;;;;;;2235464;61;20367;-68
2022/12/05 00:45:45;0.00;0.00;0.62;0.00;0.00;0.62;5.23;4.33;;;21.50;23.80;;;;;;2235782;62;20374;-69
2022/12/05 00:48:31;0.00;0.00;0.62;0.00;0.00;0.62;5.00;4.20;;;21.50;24.30;;;;;;2235605;62;21005;-68
2022/12/05 00:51:19;0.00;0.00;0.62;0.00;0.00;0.62;5.70;5.10;;;21.50;23.80;;;;;;2235273;62;20426;-68
2022/12/05 00:54:08;0.00;0.00;0.62;0.00;0.00;0.62;6.20;3.93;;;21.50;23.80;;;;;;2235828;61;20422;-68
2022/12/05 00:56:55;0.00;0.00;0.62;0.00;0.00;0.62;5.53;4.70;;;21.50;23.80;;;;;;2235268;62;20903;-68
2022/12/05 00:59:41;0.00;0.00;0.62;0.00;0.00;0.62;5.30;4.40;;;21.50;23.80;;;;;;2235408;62;20394;-68
2022/12/05 01:02:25;0.00;0.00;0.62;0.00;0.00;0.62;5.73;4.03;;;21.50;23.80;;;;;;2235828;62;20425;-67
2022/12/05 01:05:10;0.00;0.00;0.62;0.00;0.00;0.62;6.17;4.70;;;21.50;23.80;;;;;;2235803;62;20381;-69
2022/12/05 01:07:55;0.00;0.00;0.62;0.00;0.00;0.62;5.00;4.47;;;21.50;23.90;;;;;;2594650;46;20895;-69
2022/12/05 01:10:39;0.00;0.00;0.62;0.00;0.00;0.62;5.03;3.80;;;21.50;24.00;;;;;;2232304;62;20395;-69
2022/12/05 01:13:26;0.00;0.00;0.62;0.00;0.00;0.62;4.97;4.03;;;21.50;24.00;;;;;;2231133;62;20390;-72
2022/12/05 01:16:17;0.00;0.00;0.62;0.00;0.00;0.62;4.90;3.67;;;21.50;24.00;;;;;;2232643;62;20375;-70
2022/12/05 01:19:07;0.00;0.00;0.62;0.00;0.00;0.62;5.37;3.70;;;21.50;24.10;;;;;;2232166;62;20410;-69
2022/12/05 01:21:53;0.00;0.00;0.62;0.00;0.00;0.62;4.10;3.70;;;21.50;24.10;;;;;;2232114;62;20893;-73
2022/12/05 01:24:38;0.00;0.00;0.62;0.00;0.00;0.62;4.13;3.50;;;21.50;24.10;;;;;;2233033;62;20391;-74
2022/12/05 01:27:23;0.00;0.00;0.62;0.00;0.00;0.62;5.20;3.53;;;21.50;24.10;;;;;;2232118;62;20399;-74
2022/12/05 01:30:09;0.00;0.00;0.62;0.00;0.00;0.62;4.10;3.40;;;21.50;24.10;;;;;;2232846;62;20447;-75
2022/12/05 01:32:55;0.00;0.00;0.62;0.00;0.00;0.62;4.17;3.60;;;21.50;24.10;;;;;;2232389;62;20379;-74
2022/12/05 01:35:41;0.00;0.00;0.62;0.00;0.00;0.62;5.07;3.90;;;21.50;24.00;;;;;;2234341;62;20395;-74
2022/12/05 01:38:26;0.00;0.00;0.62;0.00;0.00;0.62;5.37;4.13;;;21.60;24.10;;;;;;2236695;62;20471;-76
2022/12/05 01:41:14;0.00;0.00;0.62;0.00;0.00;0.62;3.83;3.20;;;21.60;24.10;;;;;;2235751;62;20498;-75
2022/12/05 01:44:02;0.00;0.00;0.62;0.00;0.00;0.62;4.30;3.53;;;21.60;24.00;;;;;;2233015;62;20383;-73
2022/12/05 01:46:49;0.00;0.00;0.62;0.00;0.00;0.62;4.90;3.97;;;21.60;24.00;;;;;;2233659;62;20801;-73
2022/12/05 01:49:38;0.00;0.00;0.62;0.00;0.00;0.62;5.53;3.97;;;21.60;24.00;;;;;;2233046;62;20902;-75
2022/12/05 01:52:29;0.00;0.00;0.62;0.00;0.00;0.62;4.03;3.47;;;21.50;23.90;;;;;;2236693;62;20426;-71
2022/12/05 01:55:16;0.00;0.00;0.62;0.00;0.00;0.62;4.20;3.80;;;21.50;23.80;;;;;;2236204;62;20369;-71
2022/12/05 01:58:04;0.00;0.00;0.62;0.00;0.00;0.62;7.17;5.77;;;21.50;23.80;;;;;;2236170;62;20503;-71
2022/12/05 02:00:48;0.00;0.00;0.62;0.00;0.00;0.62;7.00;5.80;;;21.50;23.90;;;;;;2236761;62;20430;-71
2022/12/05 02:03:36;0.00;0.00;0.62;0.00;0.00;0.62;7.70;6.23;;;21.50;23.80;;;;;;2235842;61;20847;-71
2022/12/05 02:06:23;0.00;0.00;0.62;0.00;0.00;0.62;7.50;6.17;;;21.50;23.80;;;;;;2236409;62;20374;-71
2022/12/05 02:09:08;0.00;0.00;0.62;0.00;0.00;0.62;7.10;6.00;;;21.50;23.80;;;;;;2236343;62;20414;-71
2022/12/05 02:11:57;0.00;0.00;0.62;0.00;0.00;0.62;8.23;6.47;;;21.50;23.80;;;;;;2235856;62;20405;-71
2022/12/05 02:14:49;0.00;0.00;0.62;0.00;0.00;0.62;9.10;7.23;;;21.40;23.70;;;;;;2236759;62;20410;-71
2022/12/05 02:17:46;0.00;0.00;0.62;0.00;0.00;0.62;8.33;7.10;;;21.40;23.70;;;;;;2236158;62;20912;-71
2022/12/05 02:20:53;0.00;0.00;0.62;0.00;0.00;0.62;8.60;7.50;;;21.40;23.70;;;;;;2236424;62;20355;-72
2022/12/05 02:24:09;0.00;0.00;0.62;0.00;0.00;0.62;10.30;8.07;;;21.40;23.70;;;;;;2236336;61;20783;-71
2022/12/05 02:27:18;0.00;0.00;0.62;0.00;0.00;0.62;8.20;7.00;;;21.40;23.70;;;;;;2236043;62;20779;-71
2022/12/05 02:30:11;0.00;0.00;0.62;0.00;0.00;0.62;9.00;7.47;;;21.40;23.60;;;;;;2236338;62;20802;-71
2022/12/05 02:33:09;0.00;0.00;0.62;0.00;0.00;0.62;7.93;6.87;;;21.40;23.60;;;;;;2235786;61;20398;-71
2022/12/05 02:36:02;0.00;0.00;0.62;0.00;0.00;0.62;9.20;8.13;;;21.30;23.50;;;;;;2236097;62;20450;-71
2022/12/05 02:38:58;0.00;0.00;0.62;0.00;0.00;0.62;9.30;7.50;;;21.30;24.00;;;;;;2236076;62;20399;-71
2022/12/05 02:41:50;0.00;0.00;0.62;0.00;0.00;0.62;9.03;7.17;;;21.30;23.50;;;;;;2235757;62;20789;-71
2022/12/05 02:44:41;0.00;0.00;0.62;0.00;0.00;0.62;9.30;8.33;;;21.30;23.50;;;;;;2236564;61;20398;-71
2022/12/05 02:47:32;0.00;0.00;0.62;0.00;0.00;0.62;10.30;9.20;;;21.30;23.50;;;;;;2236182;62;20422;-72
2022/12/05 02:50:22;0.00;0.00;0.62;0.00;0.00;0.62;10.57;8.10;;;21.30;23.50;;;;;;2236287;62;20434;-72
2022/12/05 02:53:11;0.00;0.00;0.62;0.00;0.00;0.62;8.70;7.73;;;21.20;24.00;;;;;;2236103;61;20382;-71
2022/12/05 02:55:56;0.00;0.00;0.62;0.00;0.00;0.62;8.27;7.47;;;21.20;23.40;;;;;;2236097;62;20366;-71
2022/12/05 02:58:49;0.00;0.00;0.62;0.00;0.00;0.62;9.03;8.10;;;21.20;23.40;;;;;;2236224;62;20369;-72
2022/12/05 03:01:34;0.00;0.00;0.62;0.00;0.00;0.62;8.80;7.90;;;21.20;23.40;;;;;;2236010;62;20367;-71
2022/12/05 03:04:23;0.00;0.00;0.62;0.00;0.00;0.62;9.90;8.10;;;21.20;23.40;;;;;;2232788;62;20394;-71
2022/12/05 03:07:12;0.00;0.00;0.62;0.00;0.00;0.62;9.30;8.30;;;21.20;23.40;;;;;;2236233;62;20410;-72
2022/12/05 03:10:01;0.00;0.00;0.62;0.00;0.00;0.62;8.97;7.67;;;21.20;23.40;;;;;;2235570;62;20394;-72
2022/12/05 03:12:52;0.00;0.00;0.62;0.00;0.00;0.62;10.03;8.37;;;21.10;23.30;;;;;;2235900;61;20366;-71
2022/12/05 03:15:40;0.00;0.00;0.62;0.00;0.00;0.62;9.03;7.97;;;21.10;23.30;;;;;;2236253;62;20868;-72
2022/12/05 03:18:29;0.00;0.00;0.62;0.00;0.00;0.62;8.47;7.40;;;21.10;23.30;;;;;;2235944;62;20374;-71
2022/12/05 03:21:26;0.00;0.00;0.62;0.00;0.00;0.62;9.60;8.50;;;21.10;23.30;;;;;;2236062;62;20828;-72
2022/12/05 03:24:13;0.00;0.00;0.62;0.00;0.00;0.62;10.63;7.67;;;21.10;23.30;;;;;;2236254;61;20390;-72
2022/12/05 03:27:11;0.00;0.00;0.62;0.00;0.00;0.62;8.33;7.43;;;21.10;23.30;;;;;;2235700;62;20365;-72
2022/12/05 03:30:01;0.00;0.00;0.62;0.00;0.00;0.62;8.90;7.43;;;21.00;23.20;;;;;;2236260;62;20387;-72
2022/12/05 03:32:56;0.00;0.00;0.62;0.00;0.00;0.62;9.20;7.53;;;21.00;23.20;;;;;;2235334;61;20843;-71
2022/12/05 03:35:47;0.00;0.00;0.62;0.00;0.00;0.62;8.67;7.57;;;21.00;23.30;;;;;;2236230;62;20993;-71
2022/12/05 03:38:41;0.00;0.00;0.62;0.00;0.00;0.62;9.00;7.83;;;21.00;23.20;;;;;;2236048;62;20395;-71
2022/12/05 03:41:37;0.00;0.00;0.62;0.00;0.00;0.62;10.00;8.20;;;21.00;23.20;;;;;;2235551;62;20429;-71
2022/12/05 03:44:30;0.00;0.00;0.62;0.00;0.00;0.62;9.33;8.20;;;21.00;23.20;;;;;;2236231;61;20799;-71
2022/12/05 03:47:20;0.00;0.00;0.62;0.00;0.00;0.62;9.60;8.60;;;21.00;23.20;;;;;;2235526;62;20835;-71
2022/12/05 03:50:12;0.00;0.00;0.62;0.00;0.00;0.62;9.80;7.90;;;20.90;23.20;;;;;;2235758;62;20796;-71
2022/12/05 03:53:02;0.00;0.00;0.62;0.00;0.00;0.62;8.07;7.27;;;20.90;23.20;;;;;;2235906;61;20468;-71
2022/12/05 03:55:59;0.00;0.00;0.62;0.00;0.00;0.62;8.60;7.30;;;20.90;23.20;;;;;;2235178;62;20370;-71
2022/12/05 03:58:50;0.00;0.00;0.62;0.00;0.00;0.62;9.13;7.90;;;20.90;23.20;;;;;;2236196;62;20370;-71
2022/12/05 04:01:38;0.00;0.00;0.62;0.00;0.00;0.62;8.30;7.50;;;20.90;23.20;;;;;;2235660;62;20362;-71
2022/12/05 04:04:28;0.00;0.00;0.62;0.00;0.00;0.62;9.60;8.23;;;20.80;23.20;;;;;;2235810;61;20911;-71
2022/12/05 04:07:16;0.00;0.00;0.62;0.00;0.00;0.62;8.77;7.87;;;20.80;23.20;;;;;;2236157;62;20414;-71
2022/12/05 04:10:07;0.00;0.00;0.62;0.00;0.00;0.62;8.23;6.87;;;20.80;23.20;;;;;;2235810;62;20390;-71
2022/12/05 04:13:16;0.00;0.00;0.62;0.00;0.00;0.62;9.10;7.63;;;20.80;23.20;;;;;;2236013;61;20415;-71
2022/12/05 04:19:18;0.00;0.00;0.62;0.00;0.00;0.62;10.10;8.40;;;20.80;23.20;;;;;;2232805;62;20599;-71
2022/12/05 04:22:03;0.00;0.00;0.62;0.00;0.00;0.62;8.23;7.07;;;20.80;23.20;;;;;;2236091;62;20805;-71
2022/12/05 04:28:04;0.00;0.00;0.62;0.00;0.00;0.62;8.00;7.17;;;20.70;23.20;;;;;;2236268;62;20911;-71
2022/12/05 04:31:04;0.00;0.00;0.62;0.00;0.00;0.62;7.87;6.77;;;20.70;23.20;;;;;;2235719;62;20433;-71
2022/12/05 04:33:54;0.00;0.00;0.62;0.00;0.00;0.62;8.70;7.77;;;20.70;23.20;;;;;;2235838;61;20454;-71
2022/12/05 04:36:44;0.00;0.00;0.62;0.00;0.00;0.62;8.00;7.20;;;20.70;23.20;;;;;;2236239;62;20366;-71
2022/12/05 04:39:35;0.00;0.00;0.62;0.00;0.00;0.62;9.60;7.90;;;20.70;23.70;;;;;;2236050;62;20834;-71
2022/12/05 04:42:25;0.00;0.00;0.62;0.00;0.00;0.62;10.83;7.97;;;20.60;23.10;;;;;;2236818;62;20958;-71
2022/12/05 04:45:16;0.00;0.00;0.62;0.00;0.00;0.62;9.03;8.13;;;20.60;23.10;;;;;;2236657;62;20347;-71
2022/12/05 04:48:06;0.00;0.00;0.62;0.00;0.00;0.62;8.10;7.27;;;20.60;23.10;;;;;;2232818;62;20418;-71
2022/12/05 04:50:53;0.00;0.00;0.62;0.00;0.00;0.62;8.40;7.53;;;20.60;23.10;;;;;;2236620;62;20450;-71
2022/12/05 04:53:42;0.00;0.00;0.62;0.00;0.00;0.62;8.10;7.30;;;20.60;23.10;;;;;;2235873;61;20389;-71
2022/12/05 04:56:32;0.00;0.00;0.62;0.00;0.00;0.62;8.93;7.43;;;20.60;23.10;;;;;;2236571;62;20370;-71
2022/12/05 04:59:17;0.00;0.00;0.62;0.00;0.00;0.62;8.80;7.37;;;20.60;23.20;;;;;;2236510;62;20906;-71
2022/12/05 05:02:08;0.00;0.00;0.62;0.00;0.00;0.62;10.30;7.73;;;20.60;23.10;;;;;;2236162;62;20426;-71
2022/12/05 05:04:56;0.00;0.00;0.62;0.00;0.00;0.62;9.23;7.83;;;20.50;23.00;;;;;;2236779;62;20394;-71
2022/12/05 05:07:47;0.00;0.00;0.62;0.00;0.00;0.62;7.20;6.50;;;20.50;23.00;;;;;;2236279;62;20414;-71
2022/12/05 05:10:41;0.00;0.00;0.62;0.00;0.00;0.62;7.60;6.80;;;20.50;23.10;;;;;;2236072;62;20445;-71
2022/12/05 05:13:26;0.00;0.00;0.62;0.00;0.00;0.62;7.40;6.40;;;20.50;23.10;;;;;;2233505;61;20394;-71
2022/12/05 05:16:16;0.00;0.00;0.62;0.00;0.00;0.62;7.97;6.93;;;20.50;23.10;;;;;;2235996;62;20366;-71
2022/12/05 05:19:04;0.00;0.00;0.62;0.00;0.00;0.62;7.80;6.90;;;20.50;23.10;;;;;;2236526;62;20410;-71
2022/12/05 05:21:49;0.00;0.00;0.62;0.00;0.00;0.62;9.17;8.27;;;20.40;23.00;;;;;;2236286;62;20394;-71
2022/12/05 05:24:34;0.00;0.00;0.62;0.00;0.00;0.62;8.60;7.57;;;20.50;23.10;;;;;;2236247;61;20539;-71
2022/12/05 05:27:19;0.00;0.00;0.62;0.00;0.00;0.62;7.67;6.40;;;20.40;23.00;;;;;;2236507;62;20762;-71
2022/12/05 05:30:06;0.00;0.00;0.62;0.00;0.00;0.62;6.93;6.20;;;20.40;23.10;;;;;;2236324;62;20426;-71
2022/12/05 05:32:52;0.00;0.00;0.62;0.00;0.00;0.62;7.43;6.43;;;20.40;23.10;;;;;;2236293;61;20477;-71
2022/12/05 05:35:38;0.00;0.00;0.62;0.00;0.00;0.62;6.73;5.97;;;20.40;23.60;;;;;;2236550;62;20370;-74
2022/12/05 05:38:23;0.00;0.00;0.62;0.00;0.00;0.62;7.63;6.37;;;20.40;23.10;;;;;;2236015;62;20414;-73
2022/12/05 05:41:13;0.00;0.00;0.62;0.00;0.00;0.62;8.57;7.10;;;20.40;23.10;;;;;;2236174;62;20366;-72
2022/12/05 05:43:58;0.00;0.00;0.62;0.00;0.00;0.62;6.70;5.90;;;20.40;23.10;;;;;;2235923;61;20390;-71
2022/12/05 05:46:43;0.00;0.00;0.62;0.00;0.00;0.62;8.00;6.80;;;20.40;23.00;;;;;;2236132;62;20450;-71
2022/12/05 05:49:28;0.00;0.00;0.62;0.00;0.00;0.62;7.00;5.80;;;20.40;23.00;;;;;;2236382;62;20370;-71
2022/12/05 05:52:14;0.00;0.00;0.62;0.00;0.00;0.62;7.10;6.03;;;20.40;23.00;;;;;;2236191;62;20355;-71
2022/12/05 05:54:58;0.00;0.00;0.62;0.00;0.00;0.62;7.63;6.37;;;20.30;23.00;;;;;;2235981;62;20394;-70
2022/12/05 05:57:45;0.00;0.00;0.62;0.00;0.00;0.62;6.40;5.50;;;20.30;23.00;;;;;;2236458;62;20416;-72
2022/12/05 06:00:30;0.00;0.00;0.62;0.00;0.00;0.62;7.07;6.13;;;20.30;23.00;;;;;;2235743;62;20370;-69
2022/12/05 06:03:15;0.00;0.00;0.62;0.00;0.00;0.62;7.03;6.33;;;20.30;23.10;;;;;;2233036;61;20446;-69
2022/12/05 06:06:01;0.00;0.00;0.62;0.00;0.00;0.62;7.23;6.50;;;20.30;23.10;;;;;;2235991;62;20391;-70
2022/12/05 06:08:48;0.00;0.00;0.62;0.00;0.00;0.62;6.30;5.70;;;20.30;23.00;;;;;;2235718;62;20454;-70
2022/12/05 06:11:33;0.00;0.00;0.62;0.00;0.00;0.62;6.40;5.73;;;20.30;23.60;;;;;;2236175;62;20446;-69
2022/12/05 06:14:18;0.00;0.00;0.62;0.00;0.00;0.62;7.10;5.87;;;20.30;23.10;;;;;;2236239;61;20382;-67
2022/12/05 06:17:02;0.00;0.00;0.62;0.00;0.00;0.62;6.53;5.73;;;20.30;23.10;;;;;;2235735;62;20500;-68
2022/12/05 06:19:47;0.00;0.00;0.62;0.00;0.00;0.62;6.70;5.70;;;20.20;23.00;;;;;;2236424;62;20455;-68
2022/12/05 06:22:32;0.00;0.00;0.62;0.00;0.00;0.62;7.37;6.40;;;20.20;23.10;;;;;;2235661;62;20362;-67
2022/12/05 06:25:18;0.00;0.00;0.62;0.00;0.00;0.62;6.90;6.20;;;20.20;23.00;;;;;;2236243;62;20366;-66
2022/12/05 06:28:02;0.00;0.00;0.62;0.00;0.00;0.62;6.50;5.90;;;20.20;23.00;;;;;;2236431;62;20880;-68
2022/12/05 06:30:47;0.00;0.00;0.62;0.00;0.00;0.62;6.87;6.00;;;20.20;23.00;;;;;;2235959;62;20822;-64
2022/12/05 06:33:32;0.00;0.00;0.62;0.00;0.00;0.62;6.50;5.50;;;20.20;23.00;;;;;;2236232;61;20402;-67
2022/12/05 06:36:19;0.00;0.00;0.62;0.00;0.00;0.62;7.73;6.03;;;20.20;23.00;;;;;;2236196;62;20912;-70
2022/12/05 06:39:04;0.00;0.00;0.62;0.00;0.00;0.62;8.50;6.13;;;20.20;23.10;;;;;;2235630;62;20775;-67
2022/12/05 06:41:50;0.00;0.00;0.62;0.00;0.00;0.62;8.20;6.30;;;20.20;23.20;;;;;;2236366;62;20394;-70
2022/12/05 06:44:34;0.00;0.00;0.62;0.00;0.00;0.62;6.40;5.80;;;20.10;23.30;;;;;;2235460;61;20446;-68
2022/12/05 06:47:19;0.00;0.00;0.62;0.00;0.00;0.62;6.00;4.83;;;20.10;23.40;;;;;;2235890;62;20371;-66
2022/12/05 06:50:06;0.00;0.00;0.62;0.00;0.00;0.62;7.10;5.80;;;20.20;23.50;;;;;;2236370;62;20430;-71
2022/12/05 06:52:51;0.00;0.00;0.62;0.00;0.00;0.62;5.23;4.73;;;20.10;23.40;;;;;;2235830;61;20374;-71
2022/12/05 06:55:35;0.00;0.00;0.62;0.00;0.00;0.62;6.00;5.40;;;20.10;23.40;;;;;;2236418;62;20462;-72
2022/12/05 06:58:21;0.00;0.00;0.62;0.00;0.00;0.62;6.40;5.37;;;20.10;23.40;;;;;;2236322;62;20371;-72
2022/12/05 07:04:19;0.00;0.00;0.62;0.00;0.00;0.62;5.20;4.70;;;20.20;23.50;;;;;;2236434;61;20390;-72
2022/12/05 07:07:04;0.00;0.00;0.62;0.00;0.00;0.62;5.40;4.87;;;20.10;23.50;;;;;;2232655;62;20927;-72
2022/12/05 07:09:52;0.00;0.00;0.62;0.00;0.00;0.62;6.07;4.57;;;20.10;23.50;;;;;;2236050;62;20397;-71
2022/12/05 07:12:37;0.00;0.00;0.62;0.00;0.00;0.62;4.83;4.33;;;20.10;23.50;;;;;;2235980;62;20362;-71
2022/12/05 07:15:23;0.00;0.00;0.62;0.00;0.00;0.62;5.13;4.63;;;20.20;23.50;;;;;;2232746;62;20931;-72
2022/12/05 07:18:08;0.00;0.00;0.62;0.00;0.00;0.62;5.60;4.93;;;20.20;23.50;;;;;;2236302;62;20367;-71
2022/12/05 07:20:58;0.00;0.00;0.62;0.00;0.00;0.62;5.80;4.50;;;20.10;23.50;;;;;;2236117;62;20350;-71
2022/12/05 07:23:44;0.00;0.00;0.62;0.00;0.00;0.62;4.80;4.23;;;20.20;23.50;;;;;;2235733;61;20918;-72
2022/12/05 07:26:29;0.00;0.00;0.62;0.00;0.00;0.62;4.17;3.77;;;20.10;23.50;;;;;;2236410;62;20362;-71
2022/12/05 07:29:14;0.00;0.00;0.62;0.00;0.00;0.62;6.90;4.40;;;20.10;23.40;;;;;;2235739;62;20371;-72
2022/12/05 07:32:00;0.00;0.00;0.62;0.00;0.00;0.62;4.97;4.13;;;20.20;23.50;;;;;;2236045;62;20410;-71
2022/12/05 07:34:45;0.00;0.00;0.62;0.00;0.00;0.62;4.47;4.07;;;20.20;23.50;;;;;;2236084;62;20806;-72
2022/12/05 07:37:30;0.00;0.00;0.62;0.00;0.00;0.62;5.03;4.30;;;20.20;23.50;;;;;;2235729;62;20801;-72
2022/12/05 07:40:15;0.00;0.00;0.62;0.00;0.00;0.62;4.73;3.97;;;20.10;23.40;;;;;;2233100;62;20367;-71
2022/12/05 07:42:59;0.00;0.00;0.62;0.00;0.00;0.62;4.63;3.80;;;20.20;23.50;;;;;;2235940;61;20481;-72
2022/12/05 07:45:44;0.00;0.00;0.62;0.00;0.00;0.62;5.73;4.20;;;20.20;23.50;;;;;;2235617;62;20974;-71
2022/12/05 07:48:30;0.00;0.00;0.62;0.00;0.00;0.62;4.73;4.23;;;20.10;23.90;;;;;;2236399;62;20422;-73
2022/12/05 07:51:16;0.00;0.00;0.62;0.00;0.00;0.62;3.63;3.23;;;20.20;23.50;;;;;;2235483;62;20466;-72
2022/12/05 07:54:01;0.00;0.00;0.62;0.00;0.00;0.62;4.57;4.17;;;20.20;23.50;;;;;;2236079;61;20483;-73
2022/12/05 07:56:45;0.00;0.00;0.62;0.00;0.00;0.62;4.30;3.90;;;20.10;23.40;;;;;;2236296;62;20370;-72
2022/12/05 07:59:30;0.00;0.00;0.62;0.00;0.00;0.62;4.23;3.83;;;20.20;23.50;;;;;;2235900;62;20407;-71
2022/12/05 08:02:15;0.00;0.00;0.62;0.00;0.00;0.62;3.57;3.27;;;20.20;23.50;;;;;;2236065;62;20371;-72
2022/12/05 08:05:00;0.00;0.00;0.62;0.00;0.00;0.62;3.97;3.57;;;20.20;23.40;;;;;;2236157;62;20429;-72
2022/12/05 08:07:45;0.00;0.00;0.62;0.00;0.00;0.62;4.57;3.53;;;20.20;23.40;;;;;;2235615;62;20418;-72
2022/12/05 08:10:30;0.00;0.00;0.62;0.00;0.00;0.62;3.93;3.53;;;20.20;23.40;;;;;;2236238;62;20419;-71
2022/12/05 08:13:15;0.00;0.00;0.62;0.00;0.00;0.62;3.77;3.37;;;20.20;23.40;;;;;;2235770;62;20900;-72
2022/12/05 08:16:01;0.00;0.00;0.62;0.00;0.00;0.62;4.07;3.57;;;20.10;23.40;;;;;;2235988;62;20543;-71
2022/12/05 08:18:46;0.00;0.00;0.62;0.00;0.00;0.62;3.50;3.13;;;20.20;23.40;;;;;;2236261;62;20369;-71
2022/12/05 08:21:33;0.00;0.00;0.62;0.00;0.00;0.62;3.83;3.43;;;20.20;23.40;;;;;;2235799;62;20418;-71
2022/12/05 08:24:18;0.00;0.00;0.62;0.00;0.00;0.62;3.47;3.17;;;20.20;23.40;;;;;;2236123;61;20438;-71
2022/12/05 08:27:03;0.00;0.00;0.62;0.00;0.00;0.62;4.87;3.07;;;20.20;23.40;;;;;;2236011;62;20411;-71
2022/12/05 08:29:48;0.00;0.00;0.62;0.00;0.00;0.62;4.10;3.43;;;20.20;23.40;;;;;;2235517;62;20397;-72
2022/12/05 08:32:33;0.00;0.00;0.62;0.00;0.00;0.62;3.77;3.37;;;20.20;23.40;;;;;;2236164;62;20382;-72
2022/12/05 08:35:18;0.00;0.00;0.62;0.00;0.00;0.62;3.83;3.43;;;20.20;23.40;;;;;;2235862;62;20362;-71
2022/12/05 08:38:04;0.00;0.00;0.62;0.00;0.00;0.62;3.50;2.93;;;20.20;23.40;;;;;;2235849;62;20371;-71
2022/12/05 08:40:49;0.00;0.00;0.62;0.00;0.00;0.62;2.60;2.40;;;20.20;23.40;;;;;;2236127;62;20911;-73
2022/12/05 08:43:34;0.00;0.00;0.62;0.00;0.00;0.62;3.53;3.23;;;20.20;23.40;;;;;;2235579;61;20807;-72
2022/12/05 08:46:19;0.00;0.00;0.62;0.00;0.00;0.62;3.10;2.60;;;20.20;23.40;;;;;;2235858;62;20366;-72
2022/12/05 08:49:04;0.00;0.00;0.62;0.00;0.00;0.62;3.17;2.87;;;20.20;23.40;;;;;;2235935;62;20431;-72
2022/12/05 08:51:49;0.00;0.00;0.62;0.00;0.00;0.62;3.77;3.07;;;20.20;23.40;;;;;;2235365;62;20454;-72
2022/12/05 08:54:36;0.00;0.00;0.62;0.00;0.00;0.62;3.60;2.87;;;20.20;23.40;;;;;;2236239;61;20390;-71
2022/12/05 08:57:21;0.00;0.00;0.62;0.00;0.00;0.62;3.13;2.80;;;20.20;23.40;;;;;;2232552;62;20366;-73
2022/12/05 09:00:07;0.00;0.00;0.62;0.00;0.00;0.62;3.63;2.87;;;20.20;23.40;;;;;;2235894;62;20395;-72
2022/12/05 09:02:52;0.00;0.00;0.62;0.00;0.00;0.62;2.80;2.50;;;20.20;23.40;;;;;;2236033;61;20891;-72
2022/12/05 09:05:36;0.00;0.00;0.62;0.00;0.00;0.62;2.93;2.60;;;20.20;23.40;;;;;;2235449;62;20357;-71
2022/12/05 09:08:21;0.00;0.00;0.62;0.00;0.00;0.62;3.67;3.17;;;20.20;23.40;;;;;;2235954;62;20371;-72
2022/12/05 09:11:11;0.00;0.00;0.62;0.00;0.00;0.62;2.93;2.63;;;20.30;23.50;;;;;;2235778;62;20397;-72
2022/12/05 09:13:58;0.00;0.00;0.62;0.00;0.00;0.62;3.23;2.93;;;20.20;23.40;;;;;;2235545;61;20482;-73
2022/12/05 09:16:45;0.00;0.00;0.62;0.00;0.00;0.62;2.80;2.43;;;20.20;23.40;;;;;;2236143;62;20369;-72
2022/12/05 09:19:30;0.00;0.00;0.62;0.00;0.00;0.62;3.40;2.97;;;20.20;23.40;;;;;;2235661;62;20919;-72
2022/12/05 09:22:15;0.00;0.00;0.62;0.00;0.00;0.62;2.83;2.53;;;20.20;23.30;;;;;;2235728;62;20374;-73
2022/12/05 09:25:00;0.00;0.00;0.62;0.00;0.00;0.62;3.30;2.80;;;20.20;23.40;;;;;;2236139;61;20839;-73
2022/12/05 09:27:46;0.00;0.00;0.62;0.00;0.00;0.62;3.03;2.63;;;20.30;23.40;;;;;;2236193;62;20417;-73
2022/12/05 09:30:31;0.00;0.00;0.62;0.00;0.00;0.62;2.90;2.40;;;20.20;23.40;;;;;;2236544;62;20409;-71
2022/12/05 09:33:15;0.00;0.00;0.62;0.00;0.00;0.62;2.80;2.40;;;20.30;23.40;;;;;;2236316;61;20810;-73
2022/12/05 09:36:02;0.00;0.00;0.62;0.00;0.00;0.62;3.80;3.30;;;20.30;23.40;;;;;;2236063;62;20378;-72
2022/12/05 09:38:47;0.00;0.00;0.62;0.00;0.00;0.62;2.50;2.30;;;20.30;23.40;;;;;;2233604;62;20378;-72
2022/12/05 09:42:17;0.00;0.00;0.62;0.00;0.00;0.62;2.80;2.30;;;20.20;23.30;;;;;;2236338;62;20366;-72
2022/12/05 09:45:16;0.00;0.00;0.62;0.00;0.00;0.62;3.93;2.70;;;20.30;23.40;;;;;;2236454;62;21036;-73
2022/12/05 09:48:10;0.00;0.00;0.62;0.00;0.00;0.62;2.90;2.50;;;20.30;23.40;;;;;;2236214;62;20891;-72
2022/12/05 09:50:59;0.00;0.00;0.62;0.00;0.00;0.62;3.30;2.87;;;20.30;23.40;;;;;;2235985;62;20616;-72
2022/12/05 09:53:44;0.00;0.00;0.62;0.00;0.00;0.62;2.93;2.60;;;20.30;23.40;;;;;;2236509;61;20387;-72
2022/12/05 09:56:30;0.00;0.00;0.62;0.00;0.00;0.62;2.80;2.40;;;20.30;23.40;;;;;;2236341;62;20355;-71
2022/12/05 09:59:15;0.00;0.00;0.62;0.00;0.00;0.62;2.30;2.00;;;20.30;23.40;;;;;;2233246;62;20386;-71
2022/12/05 10:02:25;0.00;0.00;0.62;0.00;0.00;0.62;3.20;2.50;;;20.30;23.40;;;;;;2236490;62;20427;-72
2022/12/05 10:05:15;0.00;0.00;0.62;0.00;0.00;0.62;3.67;2.70;;;20.30;23.40;;;;;;2236203;62;20419;-64
2022/12/05 10:08:10;0.00;0.00;0.62;0.00;0.00;0.62;2.90;2.60;;;20.30;23.40;;;;;;2236534;62;20374;-68
2022/12/05 10:11:02;0.00;0.00;0.62;0.00;0.00;0.62;2.77;2.47;;;20.30;23.40;;;;;;2235883;62;20394;-67
2022/12/05 10:13:56;0.00;0.00;0.62;0.00;0.00;0.62;2.10;1.70;;;20.30;23.50;;;;;;2235714;61;20422;-68
2022/12/05 10:16:48;0.00;0.00;0.62;0.00;0.00;0.62;3.00;2.33;;;20.30;23.60;;;;;;2236299;62;20459;-66
2022/12/05 10:19:40;0.00;0.00;0.62;0.00;0.00;0.62;2.47;2.03;;;20.30;23.70;;;;;;2232770;62;20906;-66
2022/12/05 10:22:30;0.00;0.00;0.62;0.00;0.00;0.62;3.20;2.33;;;20.30;23.70;;;;;;2235821;62;20370;-67
2022/12/05 10:25:20;0.00;0.00;0.62;0.00;0.00;0.62;2.83;2.13;;;20.30;23.70;;;;;;2235906;62;20379;-66
2022/12/05 10:28:13;0.00;0.00;0.62;0.00;0.00;0.62;2.83;2.30;;;20.30;23.70;;;;;;2235544;62;20366;-68
2022/12/05 10:31:05;0.00;0.00;0.62;0.00;0.00;0.62;2.57;2.10;;;20.40;23.80;;;;;;2236229;62;20437;-68
2022/12/05 10:33:57;0.00;0.00;0.62;0.00;0.00;0.62;2.43;1.93;;;20.30;23.80;;;;;;2235721;61;20394;-66
2022/12/05 10:36:54;0.00;0.00;0.62;0.00;0.00;0.62;2.73;1.90;;;20.40;23.90;;;;;;2235899;61;20422;-66
2022/12/05 10:39:39;0.00;0.00;0.62;0.00;0.00;0.62;2.20;1.93;;;20.40;23.90;;;;;;2236434;62;20927;-78
2022/12/05 10:42:28;0.00;0.00;0.62;0.00;0.00;0.62;4.03;2.50;;;20.40;23.80;;;;;;2235795;62;20783;-72
2022/12/05 10:45:17;0.00;0.00;0.62;0.00;0.00;0.62;2.97;2.10;;;20.40;23.80;;;;;;2236532;62;20731;-66
2022/12/05 10:48:01;0.00;0.00;0.62;0.00;0.00;0.62;3.07;2.70;;;20.40;23.90;;;;;;2235966;62;20382;-66
2022/12/05 10:50:51;0.00;0.00;0.62;0.00;0.00;0.62;2.60;2.10;;;20.40;24.40;;;;;;2235646;62;20923;-67
2022/12/05 10:53:41;0.00;0.00;0.62;0.00;0.00;0.62;2.10;1.67;;;20.50;24.50;;;;;;2236343;61;20394;-66
2022/12/05 10:56:41;0.00;0.00;0.62;0.00;0.00;0.62;2.00;1.77;;;20.40;23.90;;;;;;2235299;62;20386;-66
2022/12/05 10:59:44;0.00;0.00;0.62;0.00;0.00;0.62;2.20;1.90;;;20.50;24.00;;;;;;2236024;62;20470;-67
2022/12/05 11:02:32;0.00;0.00;0.62;0.00;0.00;0.62;2.40;2.10;;;20.50;24.00;;;;;;2235684;62;20787;-66
2022/12/05 11:05:28;0.00;0.00;0.62;0.00;0.00;0.62;2.57;1.80;;;20.50;24.00;;;;;;2235850;62;20382;-67
2022/12/05 11:08:22;0.00;0.00;0.62;0.00;0.00;0.62;3.33;2.13;;;20.50;24.50;;;;;;2236290;62;20370;-65
2022/12/05 11:11:21;0.00;0.00;0.62;0.00;0.00;0.62;2.20;1.80;;;20.50;24.00;;;;;;2235272;62;20455;-69
2022/12/05 11:14:21;0.00;0.00;0.62;0.00;0.00;0.62;2.23;2.03;;;20.60;24.10;;;;;;2235908;61;20885;-70
2022/12/05 11:17:05;0.00;0.00;0.62;0.00;0.00;0.62;2.17;1.90;;;20.60;24.10;;;;;;2235857;62;20811;-68